sensor_id;sensor_type;location;lat;lon;timestamp;P1;durP1;ratioP1;P2;durP2;ratioP2
2858;SDS011;1437;53.250;10.406;2023-09-18T00:01:47;7.40;;;5.00;;
2858;SDS011;1437;53.250;10.406;2023-09-18T00:04:15;7.53;;;4.53;;
2858;SDS011;1437;53.250;10.406;2023-09-18T00:06:48;6.97;;;4.40;;
2858;SDS011;1437;53.250;10.406;2023-09-18T00:09:20;8.17;;;4.93;;
2858;SDS011;1437;53.250;10.406;2023-09-18T00:11:54;7.53;;;5.47;;
2858;SDS011;1437;53.250;10.406;2023-09-18T00:14:22;11.67;;;4.90;;
2858;SDS011;1437;53.250;10.406;2023-09-18T00:16:51;6.50;;;4.63;;
2858;SDS011;1437;53.250;10.406;2023-09-18T00:19:19;10.20;;;4.70;;
2858;SDS011;1437;53.250;10.406;2023-09-18T00:21:49;7.40;;;5.10;;
2858;SDS011;1437;53.250;10.406;2023-09-18T00:24:17;7.30;;;4.40;;
2858;SDS011;1437;53.250;10.406;2023-09-18T00:26:45;7.83;;;4.73;;
2858;SDS011;1437;53.250;10.406;2023-09-18T00:29:15;7.90;;;5.00;;
2858;SDS011;1437;53.250;10.406;2023-09-18T00:31:43;9.50;;;4.77;;
2858;SDS011;1437;53.250;10.406;2023-09-18T00:34:10;8.47;;;5.53;;
2858;SDS011;1437;53.250;10.406;2023-09-18T00:36:38;7.23;;;5.03;;
2858;SDS011;1437;53.250;10.406;2023-09-18T00:39:07;7.20;;;5.03;;
2858;SDS011;1437;53.250;10.406;2023-09-18T00:41:35;7.17;;;5.30;;
2858;SDS011;1437;53.250;10.406;2023-09-18T00:44:06;8.53;;;4.87;;
2858;SDS011;1437;53.250;10.406;2023-09-18T00:46:35;7.30;;;4.87;;
2858;SDS011;1437;53.250;10.406;2023-09-18T00:49:03;7.33;;;5.10;;
2858;SDS011;1437;53.250;10.406;2023-09-18T00:51:31;8.20;;;5.70;;
2858;SDS011;1437;53.250;10.406;2023-09-18T00:53:59;9.60;;;5.67;;
2858;SDS011;1437;53.250;10.406;2023-09-18T00:56:31;7.00;;;5.60;;
2858;SDS011;1437;53.250;10.406;2023-09-18T00:59:00;9.70;;;5.07;;
2858;SDS011;1437;53.250;10.406;2023-09-18T01:01:28;8.17;;;5.00;;
2858;SDS011;1437;53.250;10.406;2023-09-18T01:03:58;8.50;;;5.20;;
2858;SDS011;1437;53.250;10.406;2023-09-18T01:06:29;7.37;;;4.77;;
2858;SDS011;1437;53.250;10.406;2023-09-18T01:08:59;9.13;;;4.90;;
2858;SDS011;1437;53.250;10.406;2023-09-18T01:11:30;9.50;;;5.43;;
2858;SDS011;1437;53.250;10.406;2023-09-18T01:14:01;8.07;;;5.43;;
2858;SDS011;1437;53.250;10.406;2023-09-18T01:16:35;7.57;;;5.73;;
2858;SDS011;1437;53.250;10.406;2023-09-18T01:19:07;8.60;;;5.30;;
2858;SDS011;1437;53.250;10.406;2023-09-18T01:21:36;7.30;;;5.27;;
2858;SDS011;1437;53.250;10.406;2023-09-18T01:24:09;7.23;;;5.27;;
2858;SDS011;1437;53.250;10.406;2023-09-18T01:26:37;9.63;;;5.00;;
2858;SDS011;1437;53.250;10.406;2023-09-18T01:29:07;9.20;;;5.80;;
2858;SDS011;1437;53.250;10.406;2023-09-18T01:31:35;8.40;;;5.50;;
2858;SDS011;1437;53.250;10.406;2023-09-18T01:34:06;8.23;;;5.40;;
2858;SDS011;1437;53.250;10.406;2023-09-18T01:36:35;8.37;;;5.30;;
2858;SDS011;1437;53.250;10.406;2023-09-18T01:39:03;7.53;;;4.97;;
2858;SDS011;1437;53.250;10.406;2023-09-18T01:41:33;7.23;;;5.57;;
2858;SDS011;1437;53.250;10.406;2023-09-18T01:44:11;7.80;;;5.57;;
2858;SDS011;1437;53.250;10.406;2023-09-18T01:46:39;7.93;;;5.30;;
2858;SDS011;1437;53.250;10.406;2023-09-18T01:49:09;8.80;;;5.87;;
2858;SDS011;1437;53.250;10.406;2023-09-18T01:51:44;10.00;;;6.50;;
2858;SDS011;1437;53.250;10.406;2023-09-18T01:54:15;8.70;;;5.47;;
2858;SDS011;1437;53.250;10.406;2023-09-18T01:56:48;8.97;;;6.20;;
2858;SDS011;1437;53.250;10.406;2023-09-18T01:59:21;8.30;;;5.50;;
2858;SDS011;1437;53.250;10.406;2023-09-18T02:04:40;9.90;;;5.20;;
2858;SDS011;1437;53.250;10.406;2023-09-18T02:07:14;8.83;;;5.80;;
2858;SDS011;1437;53.250;10.406;2023-09-18T02:09:43;8.30;;;5.60;;
2858;SDS011;1437;53.250;10.406;2023-09-18T02:12:15;8.70;;;6.00;;
2858;SDS011;1437;53.250;10.406;2023-09-18T02:14:44;7.90;;;5.60;;
2858;SDS011;1437;53.250;10.406;2023-09-18T02:17:14;12.40;;;6.00;;
2858;SDS011;1437;53.250;10.406;2023-09-18T02:19:43;9.23;;;6.30;;
2858;SDS011;1437;53.250;10.406;2023-09-18T02:22:13;7.70;;;5.80;;
2858;SDS011;1437;53.250;10.406;2023-09-18T02:24:43;9.50;;;5.43;;
2858;SDS011;1437;53.250;10.406;2023-09-18T02:27:14;9.90;;;5.47;;
2858;SDS011;1437;53.250;10.406;2023-09-18T02:29:44;8.07;;;5.60;;
2858;SDS011;1437;53.250;10.406;2023-09-18T02:32:12;8.93;;;5.57;;
2858;SDS011;1437;53.250;10.406;2023-09-18T02:34:51;8.80;;;5.83;;
2858;SDS011;1437;53.250;10.406;2023-09-18T02:37:24;8.30;;;6.03;;
2858;SDS011;1437;53.250;10.406;2023-09-18T02:39:54;7.90;;;5.30;;
2858;SDS011;1437;53.250;10.406;2023-09-18T02:42:28;7.80;;;5.47;;
2858;SDS011;1437;53.250;10.406;2023-09-18T02:44:59;8.80;;;5.07;;
2858;SDS011;1437;53.250;10.406;2023-09-18T02:47:33;8.90;;;6.00;;
2858;SDS011;1437;53.250;10.406;2023-09-18T02:50:09;8.60;;;5.57;;
2858;SDS011;1437;53.250;10.406;2023-09-18T02:52:42;8.83;;;5.23;;
2858;SDS011;1437;53.250;10.406;2023-09-18T02:55:11;7.90;;;5.50;;
2858;SDS011;1437;53.250;10.406;2023-09-18T02:57:44;8.67;;;5.73;;
2858;SDS011;1437;53.250;10.406;2023-09-18T03:00:19;9.53;;;5.83;;
2858;SDS011;1437;53.250;10.406;2023-09-18T03:02:54;10.50;;;5.43;;
2858;SDS011;1437;53.250;10.406;2023-09-18T03:05:33;8.23;;;5.63;;
2858;SDS011;1437;53.250;10.406;2023-09-18T03:08:18;8.90;;;5.90;;
2858;SDS011;1437;53.250;10.406;2023-09-18T03:10:50;9.60;;;5.67;;
2858;SDS011;1437;53.250;10.406;2023-09-18T03:13:19;9.23;;;5.43;;
2858;SDS011;1437;53.250;10.406;2023-09-18T03:15:48;8.63;;;5.73;;
2858;SDS011;1437;53.250;10.406;2023-09-18T03:18:18;9.43;;;5.30;;
2858;SDS011;1437;53.250;10.406;2023-09-18T03:20:51;9.87;;;5.70;;
2858;SDS011;1437;53.250;10.406;2023-09-18T03:23:40;10.70;;;6.07;;
2858;SDS011;1437;53.250;10.406;2023-09-18T03:26:11;8.90;;;6.13;;
2858;SDS011;1437;53.250;10.406;2023-09-18T03:28:42;9.47;;;5.30;;
2858;SDS011;1437;53.250;10.406;2023-09-18T03:31:16;9.30;;;6.30;;
2858;SDS011;1437;53.250;10.406;2023-09-18T03:33:49;11.53;;;6.30;;
2858;SDS011;1437;53.250;10.406;2023-09-18T03:36:21;10.80;;;6.67;;
2858;SDS011;1437;53.250;10.406;2023-09-18T03:38:58;9.07;;;5.90;;
2858;SDS011;1437;53.250;10.406;2023-09-18T03:41:27;10.10;;;5.97;;
2858;SDS011;1437;53.250;10.406;2023-09-18T03:44:08;8.60;;;5.90;;
2858;SDS011;1437;53.250;10.406;2023-09-18T03:46:39;11.97;;;6.33;;
2858;SDS011;1437;53.250;10.406;2023-09-18T03:49:07;9.50;;;6.40;;
2858;SDS011;1437;53.250;10.406;2023-09-18T03:51:39;7.23;;;5.13;;
2858;SDS011;1437;53.250;10.406;2023-09-18T03:54:10;10.07;;;6.60;;
2858;SDS011;1437;53.250;10.406;2023-09-18T03:56:38;9.93;;;6.13;;
2858;SDS011;1437;53.250;10.406;2023-09-18T03:59:09;10.60;;;5.97;;
2858;SDS011;1437;53.250;10.406;2023-09-18T04:01:37;11.50;;;7.07;;
2858;SDS011;1437;53.250;10.406;2023-09-18T04:04:05;8.83;;;6.40;;
2858;SDS011;1437;53.250;10.406;2023-09-18T04:06:36;10.73;;;6.30;;
2858;SDS011;1437;53.250;10.406;2023-09-18T04:09:05;8.83;;;5.77;;
2858;SDS011;1437;53.250;10.406;2023-09-18T04:11:35;8.33;;;5.63;;
2858;SDS011;1437;53.250;10.406;2023-09-18T04:14:06;15.70;;;6.20;;
2858;SDS011;1437;53.250;10.406;2023-09-18T04:16:36;8.93;;;6.10;;
2858;SDS011;1437;53.250;10.406;2023-09-18T04:19:07;8.77;;;6.20;;
2858;SDS011;1437;53.250;10.406;2023-09-18T04:21:37;10.77;;;6.43;;
2858;SDS011;1437;53.250;10.406;2023-09-18T04:24:10;9.13;;;6.17;;
2858;SDS011;1437;53.250;10.406;2023-09-18T04:26:38;8.90;;;6.10;;
2858;SDS011;1437;53.250;10.406;2023-09-18T04:29:06;10.23;;;6.57;;
2858;SDS011;1437;53.250;10.406;2023-09-18T04:31:36;9.50;;;6.60;;
2858;SDS011;1437;53.250;10.406;2023-09-18T04:34:04;9.47;;;6.20;;
2858;SDS011;1437;53.250;10.406;2023-09-18T04:36:32;9.30;;;6.73;;
2858;SDS011;1437;53.250;10.406;2023-09-18T04:39:01;14.03;;;7.30;;
2858;SDS011;1437;53.250;10.406;2023-09-18T11:51:11;8.47;;;3.73;;
2858;SDS011;1437;53.250;10.406;2023-09-18T11:53:44;10.67;;;3.83;;
2858;SDS011;1437;53.250;10.406;2023-09-18T11:56:21;8.97;;;3.40;;
2858;SDS011;1437;53.250;10.406;2023-09-18T11:58:54;8.57;;;3.30;;
2858;SDS011;1437;53.250;10.406;2023-09-18T12:01:40;8.37;;;3.10;;
2858;SDS011;1437;53.250;10.406;2023-09-18T12:04:43;10.67;;;3.10;;
2858;SDS011;1437;53.250;10.406;2023-09-18T12:07:39;12.70;;;3.60;;
2858;SDS011;1437;53.250;10.406;2023-09-18T12:13:02;7.23;;;3.03;;
2858;SDS011;1437;53.250;10.406;2023-09-18T12:15:34;11.90;;;3.60;;
2858;SDS011;1437;53.250;10.406;2023-09-18T12:18:05;6.30;;;2.10;;
2858;SDS011;1437;53.250;10.406;2023-09-18T12:20:48;7.10;;;2.53;;
2858;SDS011;1437;53.250;10.406;2023-09-18T12:26:24;9.03;;;3.47;;
2858;SDS011;1437;53.250;10.406;2023-09-18T12:29:11;8.37;;;2.97;;
2858;SDS011;1437;53.250;10.406;2023-09-18T12:34:46;5.20;;;2.40;;
2858;SDS011;1437;53.250;10.406;2023-09-18T12:43:48;5.40;;;1.90;;
2858;SDS011;1437;53.250;10.406;2023-09-18T12:46:16;5.63;;;2.70;;
2858;SDS011;1437;53.250;10.406;2023-09-18T12:48:50;5.97;;;2.20;;
2858;SDS011;1437;53.250;10.406;2023-09-18T12:51:29;4.00;;;1.50;;
2858;SDS011;1437;53.250;10.406;2023-09-18T12:54:02;7.33;;;2.40;;
2858;SDS011;1437;53.250;10.406;2023-09-18T12:56:32;9.33;;;2.30;;
2858;SDS011;1437;53.250;10.406;2023-09-18T12:59:06;5.63;;;2.43;;
2858;SDS011;1437;53.250;10.406;2023-09-18T13:01:38;6.53;;;2.57;;
2858;SDS011;1437;53.250;10.406;2023-09-18T13:04:11;4.93;;;1.90;;
2858;SDS011;1437;53.250;10.406;2023-09-18T13:06:44;6.43;;;2.30;;
2858;SDS011;1437;53.250;10.406;2023-09-18T13:09:15;6.10;;;2.20;;
2858;SDS011;1437;53.250;10.406;2023-09-18T13:17:20;6.03;;;2.30;;
2858;SDS011;1437;53.250;10.406;2023-09-18T13:19:51;5.97;;;2.17;;
2858;SDS011;1437;53.250;10.406;2023-09-18T13:22:25;5.10;;;2.40;;
2858;SDS011;1437;53.250;10.406;2023-09-18T13:24:57;5.80;;;1.93;;
2858;SDS011;1437;53.250;10.406;2023-09-18T13:27:36;5.20;;;2.20;;
2858;SDS011;1437;53.250;10.406;2023-09-18T13:30:06;7.10;;;2.37;;
2858;SDS011;1437;53.250;10.406;2023-09-18T13:32:41;4.87;;;1.80;;
2858;SDS011;1437;53.250;10.406;2023-09-18T13:35:21;9.67;;;2.10;;
2858;SDS011;1437;53.250;10.406;2023-09-18T13:37:52;4.43;;;1.77;;
2858;SDS011;1437;53.250;10.406;2023-09-18T13:46:29;5.10;;;1.77;;
2858;SDS011;1437;53.250;10.406;2023-09-18T13:49:09;5.67;;;2.03;;
2858;SDS011;1437;53.250;10.406;2023-09-18T13:51:53;9.73;;;2.53;;
2858;SDS011;1437;53.250;10.406;2023-09-18T13:54:23;4.53;;;1.90;;
2858;SDS011;1437;53.250;10.406;2023-09-18T14:02:41;6.43;;;2.10;;
2858;SDS011;1437;53.250;10.406;2023-09-18T14:05:32;6.63;;;2.30;;
2858;SDS011;1437;53.250;10.406;2023-09-18T14:08:07;7.70;;;2.53;;
2858;SDS011;1437;53.250;10.406;2023-09-18T14:10:40;8.87;;;1.93;;
2858;SDS011;1437;53.250;10.406;2023-09-18T14:13:15;8.43;;;2.13;;
2858;SDS011;1437;53.250;10.406;2023-09-18T14:15:49;5.87;;;1.90;;
2858;SDS011;1437;53.250;10.406;2023-09-18T14:18:41;5.47;;;1.90;;
2858;SDS011;1437;53.250;10.406;2023-09-18T14:21:26;4.73;;;1.90;;
2858;SDS011;1437;53.250;10.406;2023-09-18T14:24:13;7.03;;;2.00;;
2858;SDS011;1437;53.250;10.406;2023-09-18T14:26:57;7.37;;;1.87;;
2858;SDS011;1437;53.250;10.406;2023-09-18T14:29:45;7.70;;;2.03;;
2858;SDS011;1437;53.250;10.406;2023-09-18T14:32:58;6.37;;;2.00;;
2858;SDS011;1437;53.250;10.406;2023-09-18T14:35:12;5.77;;;2.00;;
2858;SDS011;1437;53.250;10.406;2023-09-18T14:38:18;5.53;;;2.57;;
2858;SDS011;1437;53.250;10.406;2023-09-18T14:46:18;7.87;;;2.10;;
